Shadle Garland, Washington
Current Conditions -  °F | °C
As of 3:53 PM on Wednesday 26 Nov 2014 (Local Time) from KSFF Reporting Station
Haze Haze  
Wind Chill: 38°   Ceiling: 1600
Heat Index: 38°   Visibility: 4mi
Dew Point: 36°   Wind: 0mph
Humidity: 93%   Direction: NA
Pressure: 30.11"   Gusts: NA
Location:  47.6588°N, 117.425°W
Report Text: KSFF 262353Z 00000KT 4SM BR SCT004 BKN016 03/02 A3011 RMK AO2 SLP209 T00330022 10067 20028 58005
Loading
Personal Weather Stations






























Interactive Weather Map New forecast layout! Learn more

10-Day Weather Forecast

Advertisements
Track Severe Weather on mobile